Time;durP1;ratioP1;P1;durP2;ratioP2;P2;SDS_P1;SDS_P2;PMS_P1;PMS_P2;Temp;Humidity;BMP_temperature;BMP_pressure;BME280_temperature;BME280_humidity;BME280_pressure;Samples;Min_cycle;Max_cycle;Signal;HPM_P1;HPM_P2
2023/04/26 00:01:34;;;;;;;6.00;4.30;;;5.00;62.60;;;;;;6237896;28;20243;-87
2023/04/26 00:04:39;;;;;;;11.10;3.80;;;4.90;62.90;;;;;;6239769;28;20231;-83
2023/04/26 00:07:43;;;;;;;5.63;3.80;;;4.90;62.80;;;;;;6238590;28;20234;-88
2023/04/26 00:10:46;;;;;;;5.53;4.07;;;4.80;63.10;;;;;;6237941;28;20515;-87
2023/04/26 00:13:49;;;;;;;5.47;3.23;;;4.80;63.20;;;;;;6246879;28;20237;-87
2023/04/26 00:16:53;;;;;;;5.80;3.53;;;4.70;63.20;;;;;;6235596;28;20253;-87
2023/04/26 00:19:57;;;;;;;10.33;4.00;;;4.70;63.20;;;;;;6238595;28;20279;-84
2023/04/26 00:23:01;;;;;;;5.50;4.00;;;4.70;63.50;;;;;;6241714;28;20456;-85
2023/04/26 00:26:05;;;;;;;5.60;4.00;;;4.70;63.50;;;;;;6241790;28;20234;-87
2023/04/26 00:29:08;;;;;;;4.83;3.60;;;4.70;63.70;;;;;;6238947;28;20243;-86
2023/04/26 00:32:11;;;;;;;5.70;3.70;;;4.70;63.70;;;;;;6246079;28;20239;-88
2023/04/26 00:35:16;;;;;;;8.77;4.30;;;4.50;64.00;;;;;;6240530;28;20239;-86
2023/04/26 00:38:19;;;;;;;8.57;3.93;;;4.50;64.00;;;;;;6237809;28;20312;-85
2023/04/26 00:41:24;;;;;;;5.03;3.77;;;4.50;64.20;;;;;;6239228;28;20262;-86
2023/04/26 00:44:27;;;;;;;7.50;3.93;;;4.60;64.20;;;;;;6253854;28;20574;-87
2023/04/26 00:47:31;;;;;;;6.27;4.03;;;4.50;64.30;;;;;;6223119;28;20242;-86
2023/04/26 00:50:35;;;;;;;5.27;3.60;;;4.50;64.40;;;;;;6235065;28;20238;-88
2023/04/26 00:53:39;;;;;;;4.47;3.70;;;4.50;64.60;;;;;;6245129;28;20254;-87
2023/04/26 00:56:43;;;;;;;5.77;4.17;;;4.40;64.80;;;;;;6246751;28;20227;-87
2023/04/26 00:59:46;;;;;;;4.90;3.77;;;4.40;65.00;;;;;;6246516;28;20309;-86
2023/04/26 01:02:49;;;;;;;5.03;3.50;;;4.40;65.00;;;;;;6242677;28;20262;-86
2023/04/26 01:05:55;;;;;;;7.33;3.40;;;4.40;65.00;;;;;;6242427;28;20538;-85
2023/04/26 01:09:00;;;;;;;7.33;4.07;;;4.30;65.30;;;;;;6243693;28;20234;-88
2023/04/26 01:12:05;;;;;;;5.00;3.80;;;4.30;65.40;;;;;;6247402;28;20247;-89
2023/04/26 01:15:10;;;;;;;5.90;3.87;;;4.20;65.50;;;;;;6258510;28;20276;-84
2023/04/26 01:18:14;;;;;;;7.80;3.97;;;4.20;65.60;;;;;;6292857;28;20252;-82
2023/04/26 01:21:22;;;;;;;6.23;3.70;;;4.20;65.60;;;;;;6295582;28;20264;-84
2023/04/26 01:24:27;;;;;;;6.00;4.00;;;4.10;65.80;;;;;;6263331;28;20238;-82
2023/04/26 01:27:30;;;;;;;7.27;3.90;;;4.10;65.80;;;;;;6268598;28;20270;-84
2023/04/26 01:30:33;;;;;;;6.50;3.60;;;4.10;65.80;;;;;;6255842;28;20293;-88
2023/04/26 01:33:36;;;;;;;6.20;4.00;;;4.10;65.90;;;;;;6266869;28;20238;-85
2023/04/26 01:36:40;;;;;;;6.30;3.73;;;4.10;66.10;;;;;;6273276;28;20239;-84
2023/04/26 01:39:45;;;;;;;6.43;4.27;;;4.10;66.20;;;;;;6276008;28;20723;-83
2023/04/26 01:42:48;;;;;;;6.93;3.90;;;4.00;66.20;;;;;;6262021;28;20260;-85
2023/04/26 01:45:51;;;;;;;4.47;3.87;;;4.00;66.40;;;;;;6275421;28;20234;-86
2023/04/26 01:48:56;;;;;;;8.00;4.13;;;4.00;66.40;;;;;;6291983;28;20222;-83
2023/04/26 01:51:59;;;;;;;7.13;4.33;;;4.00;66.20;;;;;;6293304;28;20229;-82
2023/04/26 01:55:04;;;;;;;4.07;3.53;;;4.00;66.80;;;;;;6294483;28;20224;-86
2023/04/26 01:58:08;;;;;;;5.37;3.70;;;4.00;66.80;;;;;;6288092;28;20218;-81
2023/04/26 02:01:11;;;;;;;5.17;3.93;;;3.90;66.90;;;;;;6293214;28;20285;-84
2023/04/26 02:04:14;;;;;;;5.87;3.60;;;3.90;66.80;;;;;;6293308;28;20214;-84
2023/04/26 02:07:18;;;;;;;4.03;3.70;;;3.90;67.00;;;;;;6277785;28;20237;-84
2023/04/26 02:10:22;;;;;;;6.93;4.00;;;3.90;66.90;;;;;;6268099;28;20261;-84
2023/04/26 02:13:26;;;;;;;7.37;3.97;;;3.70;67.30;;;;;;6266800;28;20230;-87
2023/04/26 02:16:29;;;;;;;6.97;4.20;;;3.80;67.30;;;;;;6270588;28;20315;-85
2023/04/26 02:19:33;;;;;;;7.03;4.40;;;3.80;67.30;;;;;;6256904;28;20238;-86
2023/04/26 02:22:36;;;;;;;8.33;3.73;;;3.70;67.50;;;;;;6265041;28;20304;-85
2023/04/26 02:25:41;;;;;;;8.40;4.23;;;3.70;67.70;;;;;;6245008;28;20250;-87
2023/04/26 02:28:44;;;;;;;8.17;3.50;;;3.60;67.90;;;;;;6247776;28;20239;-83
2023/04/26 02:31:48;;;;;;;8.43;4.10;;;3.60;67.70;;;;;;6246057;28;20340;-86
2023/04/26 02:34:51;;;;;;;11.70;4.07;;;3.60;67.80;;;;;;6244237;28;20226;-85
2023/04/26 02:37:55;;;;;;;8.40;4.10;;;3.60;68.10;;;;;;6274541;28;20264;-85
2023/04/26 02:41:00;;;;;;;4.40;3.77;;;3.60;68.10;;;;;;6281321;28;20253;-83
2023/04/26 02:44:04;;;;;;;7.00;3.80;;;3.50;68.30;;;;;;6290978;28;20245;-84
2023/04/26 02:47:07;;;;;;;6.20;4.23;;;3.50;68.40;;;;;;6281206;28;20261;-83
2023/04/26 02:50:11;;;;;;;9.47;4.23;;;3.50;68.40;;;;;;6284618;28;20244;-83
2023/04/26 02:53:16;;;;;;;7.33;5.23;;;3.50;68.40;;;;;;6292039;28;20224;-84
2023/04/26 02:56:20;;;;;;;9.23;4.27;;;3.50;68.70;;;;;;6284240;28;20218;-84
2023/04/26 02:59:24;;;;;;;8.90;4.00;;;3.50;68.60;;;;;;6254569;28;20242;-86
2023/04/26 03:02:27;;;;;;;6.13;3.53;;;3.50;68.60;;;;;;6253988;28;20962;-87
2023/04/26 03:05:30;;;;;;;8.33;4.13;;;3.50;68.60;;;;;;6265582;28;20760;-83
2023/04/26 03:08:35;;;;;;;6.50;4.00;;;3.30;68.80;;;;;;6255460;28;20230;-87
2023/04/26 03:11:40;;;;;;;5.40;3.93;;;3.40;68.70;;;;;;6259442;28;20238;-86
2023/04/26 03:14:43;;;;;;;8.37;4.40;;;3.40;68.80;;;;;;6256424;28;20517;-86
2023/04/26 03:17:46;;;;;;;7.27;4.30;;;3.40;68.90;;;;;;6251061;28;20311;-85
2023/04/26 03:20:50;;;;;;;5.70;3.87;;;3.40;68.80;;;;;;6252284;28;20727;-88
2023/04/26 03:23:53;;;;;;;7.53;3.80;;;3.30;68.90;;;;;;6257256;28;20450;-85
2023/04/26 03:26:58;;;;;;;3.83;3.57;;;3.30;69.00;;;;;;6257982;28;20321;-85
2023/04/26 03:30:03;;;;;;;6.53;4.20;;;3.40;69.10;;;;;;6265082;28;20230;-85
2023/04/26 03:33:06;;;;;;;9.47;4.10;;;3.30;69.30;;;;;;6248225;28;20233;-81
2023/04/26 03:36:10;;;;;;;5.87;3.87;;;3.30;69.30;;;;;;6260843;28;20746;-82
2023/04/26 03:39:13;;;;;;;6.40;4.67;;;3.30;69.40;;;;;;6258446;28;20341;-85
2023/04/26 03:42:17;;;;;;;6.07;3.87;;;3.30;69.50;;;;;;6260079;28;20246;-88
2023/04/26 03:45:20;;;;;;;6.57;4.83;;;3.20;69.70;;;;;;6278613;28;20298;-87
2023/04/26 03:48:24;;;;;;;7.40;4.97;;;3.20;69.90;;;;;;6280021;28;20241;-90
2023/04/26 03:51:28;;;;;;;7.03;4.23;;;3.10;70.00;;;;;;6265199;28;20325;-80
2023/04/26 03:54:31;;;;;;;7.17;4.40;;;3.10;70.00;;;;;;6268150;28;20512;-79
2023/04/26 03:57:35;;;;;;;6.23;4.27;;;3.10;70.00;;;;;;6269849;28;20241;-80
2023/04/26 04:00:39;;;;;;;4.57;4.20;;;3.10;70.20;;;;;;6276385;28;20241;-82
2023/04/26 04:03:43;;;;;;;6.23;4.73;;;3.20;70.10;;;;;;6265866;28;20499;-87
2023/04/26 04:06:46;;;;;;;7.03;4.10;;;3.20;70.20;;;;;;6263552;28;20238;-85
2023/04/26 04:09:50;;;;;;;8.23;4.07;;;3.20;70.10;;;;;;6266459;28;20345;-83
2023/04/26 04:12:54;;;;;;;7.83;4.20;;;3.20;70.20;;;;;;6258080;28;20651;-83
2023/04/26 04:15:57;;;;;;;5.70;4.57;;;3.20;70.10;;;;;;6260218;28;20805;-83
2023/04/26 04:19:00;;;;;;;8.60;4.90;;;3.30;69.80;;;;;;6264648;28;20712;-83
2023/04/26 04:22:03;;;;;;;8.03;4.47;;;3.30;69.70;;;;;;6266121;28;20238;-81
2023/04/26 04:25:09;;;;;;;8.27;4.90;;;3.30;69.70;;;;;;6264285;28;20238;-85
2023/04/26 04:28:13;;;;;;;9.17;4.80;;;3.30;69.70;;;;;;6262698;28;20244;-81
2023/04/26 04:31:17;;;;;;;11.03;4.53;;;3.30;69.60;;;;;;6253982;28;20247;-84
2023/04/26 04:34:22;;;;;;;9.20;4.77;;;3.30;69.60;;;;;;6251634;28;20262;-84
2023/04/26 04:37:25;;;;;;;4.83;4.40;;;3.30;69.30;;;;;;6263401;28;20234;-84
2023/04/26 04:40:29;;;;;;;10.27;4.73;;;3.30;69.50;;;;;;6257787;28;20234;-79
2023/04/26 04:43:33;;;;;;;7.20;4.23;;;3.40;69.40;;;;;;6256036;28;20238;-78
2023/04/26 04:46:37;;;;;;;10.40;4.57;;;3.30;69.30;;;;;;6265546;28;20246;-78
2023/04/26 04:49:40;;;;;;;10.60;5.40;;;3.40;69.30;;;;;;6260430;28;20303;-80
2023/04/26 04:52:45;;;;;;;4.80;4.30;;;3.40;69.30;;;;;;6261877;28;20773;-78
2023/04/26 04:55:48;;;;;;;8.97;4.80;;;3.40;69.30;;;;;;6266877;28;20234;-78
2023/04/26 04:58:53;;;;;;;7.67;4.40;;;3.60;68.70;;;;;;6261349;28;20246;-79
2023/04/26 05:01:56;;;;;;;9.10;5.13;;;3.60;68.60;;;;;;6258833;28;20266;-78
2023/04/26 05:05:00;;;;;;;8.80;5.13;;;3.60;68.60;;;;;;6264615;28;20233;-77
2023/04/26 05:08:03;;;;;;;7.43;4.90;;;3.60;68.50;;;;;;6259894;28;20607;-79
2023/04/26 05:11:06;;;;;;;9.63;5.03;;;3.70;68.30;;;;;;6262493;28;20612;-79
2023/04/26 05:14:11;;;;;;;7.50;5.00;;;3.70;68.40;;;;;;6266282;28;20614;-79
2023/04/26 05:17:14;;;;;;;11.40;4.93;;;3.70;68.20;;;;;;6247574;28;20277;-78
2023/04/26 05:20:17;;;;;;;6.20;4.30;;;3.80;68.20;;;;;;6234243;28;20234;-78
2023/04/26 05:23:20;;;;;;;9.47;5.00;;;3.90;68.10;;;;;;6225592;28;20258;-76
2023/04/26 05:26:23;;;;;;;7.40;4.50;;;4.00;67.80;;;;;;6227160;28;20243;-78
2023/04/26 05:29:30;;;;;;;7.73;4.43;;;4.10;67.50;;;;;;6235135;28;20230;-78
2023/04/26 05:32:33;;;;;;;7.57;4.87;;;4.20;67.50;;;;;;6254463;28;20725;-75
2023/04/26 05:35:36;;;;;;;5.50;4.50;;;4.30;67.20;;;;;;6238183;28;20607;-79
2023/04/26 05:38:40;;;;;;;6.83;4.40;;;4.30;67.10;;;;;;6237537;28;20243;-80
2023/04/26 05:41:43;;;;;;;4.90;4.37;;;4.40;67.00;;;;;;6237134;28;20333;-78
2023/04/26 05:44:48;;;;;;;8.80;5.00;;;4.50;66.70;;;;;;6241698;28;20943;-76
2023/04/26 05:47:51;;;;;;;6.07;4.40;;;4.70;66.20;;;;;;6262712;28;20226;-77
2023/04/26 05:50:54;;;;;;;11.73;5.70;;;4.90;65.80;;;;;;6258343;28;20237;-79
2023/04/26 05:53:57;;;;;;;9.63;4.70;;;5.00;65.60;;;;;;6263835;28;20237;-80
2023/04/26 05:57:00;;;;;;;7.37;4.67;;;5.10;65.10;;;;;;6256748;28;20222;-78
2023/04/26 06:00:08;;;;;;;10.03;4.73;;;5.30;64.70;;;;;;6259372;28;20242;-78
2023/04/26 06:03:11;;;;;;;7.47;4.27;;;5.50;64.00;;;;;;6259826;28;20766;-78
2023/04/26 06:06:15;;;;;;;8.17;4.67;;;5.70;63.80;;;;;;6260983;28;20422;-77
2023/04/26 06:09:18;;;;;;;9.23;4.63;;;5.90;63.00;;;;;;6243669;28;20230;-79
2023/04/26 06:12:22;;;;;;;9.57;5.03;;;6.00;63.10;;;;;;6247768;28;21500;-78
2023/04/26 06:15:27;;;;;;;7.90;4.10;;;6.20;62.30;;;;;;6266686;28;20241;-77
2023/04/26 06:18:30;;;;;;;6.77;4.17;;;6.20;62.10;;;;;;6256766;28;20230;-79
2023/04/26 06:21:33;;;;;;;7.47;4.13;;;6.30;61.80;;;;;;6272012;28;20234;-78
2023/04/26 06:24:36;;;;;;;4.10;3.80;;;6.30;61.70;;;;;;6265347;28;20237;-78
2023/04/26 06:27:39;;;;;;;4.17;3.87;;;6.30;61.70;;;;;;6236204;28;20617;-77
2023/04/26 06:30:44;;;;;;;6.63;3.97;;;6.20;62.00;;;;;;6251928;28;20243;-81
2023/04/26 06:33:47;;;;;;;10.93;4.47;;;6.50;61.60;;;;;;6239901;28;20491;-79
2023/04/26 06:36:51;;;;;;;6.53;4.23;;;6.70;61.00;;;;;;6225991;28;20606;-79
2023/04/26 06:39:54;;;;;;;11.10;4.27;;;6.60;61.10;;;;;;6253654;28;20447;-78
2023/04/26 06:42:57;;;;;;;9.00;4.20;;;6.70;60.90;;;;;;6258894;28;20241;-79
2023/04/26 06:46:02;;;;;;;6.00;4.17;;;6.80;61.00;;;;;;6256455;28;20837;-77
2023/04/26 06:49:05;;;;;;;8.20;4.00;;;7.00;60.60;;;;;;6261295;28;20230;-76
2023/04/26 06:52:09;;;;;;;5.13;3.97;;;7.20;60.10;;;;;;6262739;28;20226;-76
2023/04/26 06:55:12;;;;;;;6.60;4.23;;;7.40;59.70;;;;;;6257449;28;20578;-77
2023/04/26 06:58:15;;;;;;;7.87;4.20;;;7.40;59.40;;;;;;6263734;28;20615;-78
2023/04/26 07:01:19;;;;;;;12.93;4.10;;;7.20;59.90;;;;;;6261499;28;20733;-79
2023/04/26 07:04:22;;;;;;;7.10;4.47;;;7.50;59.70;;;;;;6263234;28;20238;-77
2023/04/26 07:07:26;;;;;;;9.70;4.07;;;7.50;59.50;;;;;;6265817;28;20261;-77
2023/04/26 07:10:31;;;;;;;10.07;4.50;;;7.60;59.00;;;;;;6258545;28;20724;-79
2023/04/26 07:13:35;;;;;;;8.30;4.20;;;7.70;58.50;;;;;;6260663;28;20303;-77
2023/04/26 07:16:39;;;;;;;5.87;4.20;;;7.40;59.00;;;;;;6271553;28;20254;-78
2023/04/26 07:19:43;;;;;;;6.47;4.37;;;7.30;59.20;;;;;;6249265;28;20313;-78
2023/04/26 07:22:46;;;;;;;5.03;4.00;;;7.40;60.00;;;;;;6230952;28;20625;-77
2023/04/26 07:25:49;;;;;;;7.07;4.90;;;7.50;59.30;;;;;;6270249;28;20233;-81
2023/04/26 07:28:52;;;;;;;7.50;4.47;;;7.50;59.10;;;;;;6257873;28;20438;-82
2023/04/26 07:31:57;;;;;;;11.63;4.43;;;7.50;58.80;;;;;;6248370;28;20246;-80
2023/04/26 07:35:01;;;;;;;5.50;3.80;;;7.50;58.90;;;;;;6263725;28;20237;-78
2023/04/26 07:38:04;;;;;;;11.83;4.60;;;7.80;57.70;;;;;;6246405;28;20233;-80
2023/04/26 07:41:07;;;;;;;7.43;3.70;;;7.80;57.50;;;;;;6260564;28;20486;-78
2023/04/26 07:44:13;;;;;;;10.03;4.70;;;8.00;58.20;;;;;;6270450;28;20234;-80
2023/04/26 07:47:17;;;;;;;8.37;4.87;;;8.20;56.70;;;;;;6269190;28;20261;-78
2023/04/26 07:50:22;;;;;;;6.93;4.20;;;8.30;56.80;;;;;;6267138;28;20245;-77
2023/04/26 07:53:25;;;;;;;7.07;4.53;;;8.30;56.50;;;;;;6270174;28;20292;-76
2023/04/26 07:56:28;;;;;;;7.30;4.13;;;8.20;56.50;;;;;;6270456;28;20437;-80
2023/04/26 07:59:31;;;;;;;4.53;4.00;;;8.30;56.00;;;;;;6258226;28;20251;-78
2023/04/26 08:02:36;;;;;;;6.50;4.30;;;8.30;56.20;;;;;;6270654;28;20234;-79
2023/04/26 08:05:45;;;;;;;4.63;3.83;;;8.50;56.30;;;;;;6263390;28;20226;-78
2023/04/26 08:08:49;;;;;;;6.17;3.90;;;8.50;56.10;;;;;;6252918;28;20287;-79
2023/04/26 08:11:52;;;;;;;8.97;3.73;;;8.50;55.70;;;;;;6253254;28;20237;-77
2023/04/26 08:14:55;;;;;;;7.50;3.90;;;8.50;55.90;;;;;;6249860;28;20754;-77
2023/04/26 08:18:00;;;;;;;8.87;3.60;;;8.50;56.20;;;;;;6266328;28;20230;-79
2023/04/26 08:21:03;;;;;;;8.70;3.93;;;8.30;55.90;;;;;;6238015;28;20231;-79
2023/04/26 08:24:07;;;;;;;6.67;4.30;;;8.10;56.70;;;;;;6239008;28;20245;-80
2023/04/26 08:27:10;;;;;;;10.33;5.00;;;8.00;56.50;;;;;;6253586;28;20408;-79
2023/04/26 08:30:13;;;;;;;14.43;4.47;;;8.10;56.90;;;;;;6251272;28;20711;-78
2023/04/26 08:33:18;;;;;;;6.03;3.73;;;8.40;56.80;;;;;;6232651;28;20258;-77
2023/04/26 08:36:21;;;;;;;5.70;4.40;;;8.70;55.50;;;;;;6235267;28;20235;-77
2023/04/26 08:39:24;;;;;;;7.27;4.10;;;8.90;55.50;;;;;;6239755;28;20261;-77
2023/04/26 08:42:28;;;;;;;8.87;3.73;;;9.20;55.00;;;;;;6239239;28;20242;-77
2023/04/26 08:45:33;;;;;;;5.73;4.37;;;8.60;55.20;;;;;;6246891;28;20237;-78
2023/04/26 08:48:38;;;;;;;6.20;4.30;;;8.20;57.80;;;;;;6237062;28;20246;-79
2023/04/26 08:51:42;;;;;;;8.80;4.63;;;7.80;59.10;;;;;;6246344;28;20273;-78
2023/04/26 08:54:46;;;;;;;4.53;3.80;;;7.60;60.10;;;;;;6251933;28;20234;-79
2023/04/26 08:57:50;;;;;;;4.07;3.57;;;7.50;60.40;;;;;;6252986;28;20235;-78
2023/04/26 09:00:53;;;;;;;5.47;3.93;;;7.90;59.80;;;;;;6268822;28;20244;-79
2023/04/26 09:04:00;;;;;;;8.33;4.10;;;8.30;59.70;;;;;;6267597;28;20660;-78
2023/04/26 09:07:06;;;;;;;3.93;3.60;;;8.40;58.50;;;;;;6271538;28;20246;-79
2023/04/26 09:10:11;;;;;;;6.70;3.63;;;8.60;57.10;;;;;;6262805;28;20240;-77
2023/04/26 09:13:14;;;;;;;4.20;3.80;;;8.80;56.30;;;;;;6258324;28;20226;-81
2023/04/26 09:16:17;;;;;;;9.10;4.10;;;8.60;55.80;;;;;;6269889;28;20231;-79
2023/04/26 09:19:35;;;;;;;3.53;3.20;;;8.80;56.50;;;;;;6266768;28;20522;-79
2023/04/26 09:22:38;;;;;;;3.60;3.40;;;8.90;56.80;;;;;;6260737;28;20280;-78
2023/04/26 09:25:42;;;;;;;4.80;3.70;;;9.00;55.70;;;;;;6245639;28;20248;-79
2023/04/26 09:28:46;;;;;;;6.33;3.47;;;8.80;54.80;;;;;;6237503;28;20384;-78
2023/04/26 09:31:50;;;;;;;4.93;3.97;;;8.90;54.80;;;;;;6256285;28;20316;-77
2023/04/26 09:34:54;;;;;;;3.63;3.40;;;8.90;54.70;;;;;;6239466;28;20234;-79
2023/04/26 09:38:00;;;;;;;5.47;3.70;;;8.90;54.60;;;;;;6246204;28;20400;-79
2023/04/26 09:41:12;;;;;;;5.70;3.50;;;9.20;55.10;;;;;;6271449;28;20250;-80
2023/04/26 09:44:23;;;;;;;6.17;3.37;;;9.30;54.10;;;;;;6242844;28;20243;-78
2023/04/26 09:47:26;;;;;;;9.10;3.63;;;9.20;51.80;;;;;;6245285;28;20234;-79
2023/04/26 09:50:31;;;;;;;3.53;3.23;;;9.40;52.30;;;;;;6257712;28;20246;-78
2023/04/26 09:53:37;;;;;;;3.73;3.00;;;9.40;52.90;;;;;;6257547;28;20287;-80
2023/04/26 09:56:40;;;;;;;7.03;3.60;;;9.40;52.30;;;;;;6259624;28;20231;-77
2023/04/26 09:59:44;;;;;;;3.20;2.90;;;9.20;52.50;;;;;;6262746;28;20233;-78
2023/04/26 10:02:47;;;;;;;3.47;3.23;;;9.40;52.30;;;;;;6267241;28;20324;-77
2023/04/26 10:05:52;;;;;;;5.53;3.83;;;9.60;51.10;;;;;;6277430;28;20740;-78
2023/04/26 10:08:56;;;;;;;5.60;3.63;;;9.60;50.30;;;;;;6264235;28;20236;-79
2023/04/26 10:12:02;;;;;;;3.77;3.43;;;9.50;51.10;;;;;;6272181;28;20242;-78
2023/04/26 10:15:08;;;;;;;5.97;3.87;;;9.50;51.80;;;;;;6270501;28;20237;-77
2023/04/26 10:18:11;;;;;;;4.47;3.40;;;9.40;50.70;;;;;;6275891;28;20253;-78
2023/04/26 10:21:20;;;;;;;5.20;3.57;;;9.40;50.70;;;;;;6262294;28;20238;-77
2023/04/26 10:24:23;;;;;;;4.03;2.90;;;9.50;50.50;;;;;;6255514;28;20238;-78
2023/04/26 10:27:51;;;;;;;4.30;3.43;;;9.60;50.70;;;;;;6265730;28;20237;-78
2023/04/26 10:30:55;;;;;;;4.23;3.53;;;9.60;49.40;;;;;;6256427;28;20242;-78
2023/04/26 10:34:19;;;;;;;4.57;3.40;;;9.40;50.00;;;;;;6255363;28;20661;-78
2023/04/26 10:37:24;;;;;;;5.00;3.70;;;9.20;50.30;;;;;;6250006;28;20755;-77
2023/04/26 10:40:29;;;;;;;4.27;3.77;;;9.10;51.60;;;;;;6260665;28;20241;-78
2023/04/26 10:43:32;;;;;;;4.40;4.00;;;9.00;52.90;;;;;;6245343;28;20254;-77
2023/04/26 10:46:37;;;;;;;4.07;3.73;;;8.90;53.00;;;;;;6253639;28;20238;-78
2023/04/26 10:49:45;;;;;;;4.13;3.73;;;8.70;53.60;;;;;;6249608;28;20709;-79
2023/04/26 10:53:11;;;;;;;3.67;3.40;;;8.80;53.50;;;;;;6239096;28;20703;-78
2023/04/26 10:56:51;;;;;;;4.13;3.80;;;8.80;53.30;;;;;;6239848;28;20636;-79
2023/04/26 11:00:33;;;;;;;5.07;3.83;;;8.90;53.00;;;;;;6238822;28;20326;-78
2023/04/26 11:03:37;;;;;;;6.13;3.60;;;9.40;53.20;;;;;;6238753;28;20527;-79
2023/04/26 11:06:50;;;;;;;4.83;3.77;;;9.80;51.20;;;;;;6254673;28;20722;-78
2023/04/26 11:09:55;;;;;;;4.97;4.00;;;9.90;50.70;;;;;;6257296;28;20370;-76
2023/04/26 11:13:03;;;;;;;7.60;3.80;;;9.70;50.30;;;;;;6238513;28;20230;-76
2023/04/26 11:16:07;;;;;;;4.67;3.83;;;9.70;49.80;;;;;;6245970;28;20241;-77
2023/04/26 11:19:11;;;;;;;3.63;3.37;;;9.80;49.70;;;;;;6234051;28;20233;-77
2023/04/26 11:22:14;;;;;;;5.47;4.03;;;9.60;50.00;;;;;;6230927;28;20239;-82
2023/04/26 11:25:21;;;;;;;4.13;3.80;;;9.70;50.40;;;;;;6237458;28;21031;-80
2023/04/26 11:28:26;;;;;;;4.33;3.90;;;9.80;50.00;;;;;;6236131;28;20274;-78
2023/04/26 11:31:30;;;;;;;6.83;4.00;;;9.80;49.40;;;;;;6239989;28;20247;-79
2023/04/26 11:34:35;;;;;;;4.50;4.10;;;10.00;49.00;;;;;;6237982;28;20261;-81
2023/04/26 11:37:41;;;;;;;4.37;3.97;;;10.10;47.90;;;;;;6246782;28;20266;-80
2023/04/26 11:40:52;;;;;;;5.70;4.30;;;10.20;48.00;;;;;;6255229;28;20234;-79
2023/04/26 11:43:59;;;;;;;5.53;4.27;;;10.40;47.80;;;;;;6244807;28;20623;-78
2023/04/26 11:47:03;;;;;;;10.13;4.30;;;10.30;47.80;;;;;;6240870;28;20233;-78
2023/04/26 11:50:08;;;;;;;6.73;4.33;;;10.30;48.20;;;;;;6247008;28;21071;-77
2023/04/26 11:53:13;;;;;;;7.47;4.70;;;10.40;47.80;;;;;;6251776;28;20222;-77
2023/04/26 11:56:18;;;;;;;6.33;4.30;;;10.30;48.20;;;;;;6252832;28;20253;-78
2023/04/26 11:59:24;;;;;;;6.47;4.50;;;10.30;48.40;;;;;;6258665;28;20262;-77
2023/04/26 12:02:30;;;;;;;5.23;4.43;;;10.30;49.00;;;;;;6260120;28;20302;-77
2023/04/26 12:05:33;;;;;;;4.57;4.13;;;10.10;48.80;;;;;;6226871;28;20399;-76
2023/04/26 12:08:36;;;;;;;4.23;3.93;;;10.00;47.30;;;;;;6237377;28;20589;-78
2023/04/26 12:11:40;;;;;;;4.07;3.87;;;10.00;47.90;;;;;;6239910;28;20245;-83
2023/04/26 12:14:44;;;;;;;5.43;4.10;;;9.90;47.40;;;;;;6242352;28;20235;-80
2023/04/26 12:17:59;;;;;;;4.30;4.00;;;9.80;47.80;;;;;;6239964;28;20243;-78
2023/04/26 12:21:02;;;;;;;4.83;4.07;;;10.10;47.60;;;;;;6244911;28;20239;-79
2023/04/26 12:24:05;;;;;;;6.00;4.33;;;10.60;47.30;;;;;;6244685;28;20266;-79
2023/04/26 12:27:20;;;;;;;5.23;4.23;;;11.10;47.10;;;;;;6245578;28;20309;-81
2023/04/26 12:30:27;;;;;;;4.57;4.10;;;11.20;47.00;;;;;;6248203;28;20288;-79
2023/04/26 12:33:31;;;;;;;5.00;3.80;;;11.10;47.20;;;;;;6234058;28;20838;-79
2023/04/26 12:36:35;;;;;;;4.50;4.10;;;11.10;47.10;;;;;;6237259;28;20249;-79
2023/04/26 12:39:38;;;;;;;4.67;4.17;;;11.00;47.50;;;;;;6248752;28;20730;-79
2023/04/26 12:42:42;;;;;;;6.60;4.37;;;10.60;48.30;;;;;;6250744;28;20238;-81
2023/04/26 12:45:45;;;;;;;6.20;4.47;;;10.30;49.30;;;;;;6246666;28;20252;-79
2023/04/26 12:48:48;;;;;;;6.23;4.27;;;10.30;49.20;;;;;;6234224;28;20250;-81
2023/04/26 12:51:52;;;;;;;7.53;4.07;;;10.00;49.70;;;;;;6256848;28;20237;-80
2023/04/26 12:54:55;;;;;;;7.03;4.60;;;10.10;49.60;;;;;;6239580;28;20250;-80
2023/04/26 12:57:59;;;;;;;5.97;4.10;;;10.00;50.10;;;;;;6244697;28;20849;-78
2023/04/26 13:01:02;;;;;;;6.93;4.30;;;10.00;49.70;;;;;;6252013;28;20328;-79
2023/04/26 13:04:05;;;;;;;4.70;4.30;;;10.00;49.80;;;;;;6264963;28;20238;-79
2023/04/26 13:07:09;;;;;;;5.90;4.87;;;9.80;49.60;;;;;;6282119;28;20336;-83
2023/04/26 13:10:12;;;;;;;8.00;5.07;;;10.00;49.60;;;;;;6299076;28;20238;-81
2023/04/26 13:13:16;;;;;;;7.50;4.27;;;10.20;49.20;;;;;;6286664;28;20243;-82
2023/04/26 13:16:21;;;;;;;4.97;4.53;;;10.60;48.50;;;;;;6297014;28;20229;-81
2023/04/26 13:19:25;;;;;;;4.37;4.07;;;11.00;47.60;;;;;;6288709;28;20389;-78
2023/04/26 13:22:28;;;;;;;5.10;4.03;;;10.90;47.70;;;;;;6289420;28;20300;-82
2023/04/26 13:25:32;;;;;;;5.33;4.57;;;11.00;47.30;;;;;;6283188;28;20249;-82
2023/04/26 13:28:36;;;;;;;4.40;4.00;;;11.00;46.50;;;;;;6286660;28;20404;-77
2023/04/26 13:31:39;;;;;;;8.27;4.47;;;11.00;47.20;;;;;;6269291;28;20404;-78
2023/04/26 13:34:44;;;;;;;4.03;3.77;;;11.10;46.70;;;;;;6268854;28;20254;-78
2023/04/26 13:37:47;;;;;;;4.73;4.07;;;11.00;46.80;;;;;;6261141;28;20237;-77
2023/04/26 13:40:51;;;;;;;4.80;4.10;;;10.80;46.20;;;;;;6266913;28;20234;-79
2023/04/26 13:43:55;;;;;;;4.67;4.23;;;10.70;46.60;;;;;;6268937;28;20244;-81
2023/04/26 13:46:59;;;;;;;5.07;4.67;;;10.40;46.60;;;;;;6256736;28;20240;-77
2023/04/26 13:50:03;;;;;;;4.53;4.23;;;10.30;46.70;;;;;;6262670;28;21987;-80
2023/04/26 13:53:06;;;;;;;4.63;4.23;;;10.30;46.60;;;;;;6253909;28;20634;-79
2023/04/26 13:56:10;;;;;;;4.93;4.10;;;10.10;48.10;;;;;;6261127;28;20267;-80
2023/04/26 13:59:17;;;;;;;4.67;4.33;;;9.90;48.70;;;;;;6262863;28;20238;-79
2023/04/26 14:02:20;;;;;;;4.80;4.30;;;9.70;50.20;;;;;;6263442;28;20675;-80
2023/04/26 14:05:26;;;;;;;5.20;4.80;;;9.80;51.20;;;;;;6295930;28;20238;-82
2023/04/26 14:08:29;;;;;;;5.97;4.13;;;10.20;51.00;;;;;;6265893;28;20227;-82
2023/04/26 14:11:32;;;;;;;4.83;4.53;;;10.50;49.80;;;;;;6272286;28;20226;-82
2023/04/26 14:14:37;;;;;;;5.77;4.60;;;10.50;48.30;;;;;;6276034;28;20246;-81
2023/04/26 14:17:40;;;;;;;4.37;4.17;;;10.40;48.20;;;;;;6294634;28;20297;-82
2023/04/26 14:20:43;;;;;;;4.60;4.30;;;10.30;48.30;;;;;;6288867;28;20225;-82
2023/04/26 14:23:46;;;;;;;4.90;4.50;;;10.30;48.50;;;;;;6267443;28;20238;-79
2023/04/26 14:26:50;;;;;;;9.77;4.37;;;10.30;48.80;;;;;;6269932;28;20616;-79
2023/04/26 14:29:54;;;;;;;4.50;4.10;;;10.40;49.10;;;;;;6268962;28;20225;-78
2023/04/26 14:32:57;;;;;;;4.23;4.00;;;10.50;48.50;;;;;;6262487;28;20244;-78
2023/04/26 14:36:01;;;;;;;4.33;3.97;;;10.80;48.10;;;;;;6274455;28;20233;-77
2023/04/26 14:39:04;;;;;;;8.47;6.10;;;10.90;48.20;;;;;;6268525;28;21453;-78
2023/04/26 14:42:07;;;;;;;4.67;3.90;;;10.70;47.90;;;;;;6263420;28;20720;-78
2023/04/26 14:45:12;;;;;;;5.87;4.30;;;10.70;48.00;;;;;;6273732;28;20343;-81
2023/04/26 14:48:15;;;;;;;4.67;4.00;;;10.70;47.80;;;;;;6271034;28;20325;-79
2023/04/26 14:51:19;;;;;;;7.10;4.00;;;10.60;48.20;;;;;;6273486;28;20245;-80
2023/04/26 14:54:22;;;;;;;3.77;3.60;;;10.50;47.70;;;;;;6256619;28;20230;-79
2023/04/26 14:57:25;;;;;;;5.83;4.37;;;10.40;47.80;;;;;;6272339;28;20237;-78
2023/04/26 15:00:31;;;;;;;4.97;4.57;;;10.40;48.50;;;;;;6259309;28;20249;-81
2023/04/26 15:03:35;;;;;;;4.97;4.57;;;10.10;48.40;;;;;;6267959;28;20233;-79
2023/04/26 15:06:39;;;;;;;7.10;4.13;;;10.10;48.40;;;;;;6242785;28;20315;-78
2023/04/26 15:09:42;;;;;;;4.50;4.10;;;10.00;48.60;;;;;;6245684;28;20596;-79
2023/04/26 15:12:45;;;;;;;5.27;4.17;;;10.00;48.60;;;;;;6262928;28;20257;-80
2023/04/26 15:15:49;;;;;;;4.80;4.30;;;10.00;48.80;;;;;;6258168;28;20457;-79
2023/04/26 15:18:53;;;;;;;4.60;4.23;;;9.90;49.00;;;;;;6261837;28;20307;-80
2023/04/26 15:21:55;;;;;;;4.87;4.20;;;10.00;48.60;;;;;;6263388;28;20237;-79
2023/04/26 15:24:58;;;;;;;4.20;3.93;;;10.20;48.30;;;;;;6245158;28;20237;-80
2023/04/26 15:28:02;;;;;;;5.60;4.00;;;10.40;47.50;;;;;;6253664;28;20744;-79
2023/04/26 15:31:09;;;;;;;4.47;3.70;;;10.60;47.20;;;;;;6240463;28;20250;-80
2023/04/26 15:34:12;;;;;;;4.23;3.97;;;10.60;47.10;;;;;;6236681;28;20226;-80
2023/04/26 15:37:15;;;;;;;4.83;4.37;;;10.70;47.50;;;;;;6237625;28;20231;-81
2023/04/26 15:40:18;;;;;;;4.10;3.70;;;10.80;47.40;;;;;;6234208;28;20712;-80
2023/04/26 15:43:21;;;;;;;7.47;4.27;;;10.80;47.10;;;;;;6233099;28;20235;-79
2023/04/26 15:46:26;;;;;;;4.33;3.97;;;10.80;47.00;;;;;;6238055;28;20241;-75
2023/04/26 15:49:29;;;;;;;5.73;3.73;;;10.70;46.70;;;;;;6239742;28;20232;-79
2023/04/26 15:52:35;;;;;;;4.73;4.10;;;10.50;46.80;;;;;;6260619;28;20252;-78
2023/04/26 15:55:41;;;;;;;3.97;3.77;;;10.40;47.00;;;;;;6263702;28;20257;-80
2023/04/26 15:58:44;;;;;;;4.27;4.00;;;10.20;47.40;;;;;;6239153;28;20227;-79
2023/04/26 16:01:49;;;;;;;4.40;4.00;;;10.00;47.50;;;;;;6248853;28;20275;-78
2023/04/26 16:04:53;;;;;;;4.33;4.00;;;10.00;48.20;;;;;;6244695;28;20715;-80
2023/04/26 16:07:56;;;;;;;6.47;4.33;;;10.00;48.00;;;;;;6245839;28;20248;-79